Time;durP1;ratioP1;P1;durP2;ratioP2;P2;SDS_P1;SDS_P2;PMS_P1;PMS_P2;Temp;Humidity;BMP_temperature;BMP_pressure;BME280_temperature;BME280_humidity;BME280_pressure;Samples;Min_cycle;Max_cycle;Signal;HPM_P1;HPM_P2
2023/01/02 00:02:00;;;;;;;;;87.00;75.25;;;;;16.21;48.93;100500.28;5093403;27;9770;-78
2023/01/02 00:04:30;;;;;;;;;85.00;74.25;;;;;16.18;49.41;100503.81;5127387;27;9784;-79
2023/01/02 00:07:00;;;;;;;;;87.00;75.25;;;;;16.16;49.09;100497.69;5126824;27;9896;-80
2023/01/02 00:09:28;;;;;;;;;86.75;76.25;;;;;16.15;49.33;100499.44;5126957;27;10639;-78
2023/01/02 00:11:58;;;;;;;;;84.50;74.00;;;;;16.14;49.20;100502.97;5110057;27;10162;-76
2023/01/02 00:14:27;;;;;;;;;81.75;63.25;;;;;16.16;48.84;100498.56;5109982;27;9731;-79
2023/01/02 00:16:58;;;;;;;;;84.75;67.00;;;;;16.14;48.88;100504.72;5112607;27;9636;-78
2023/01/02 00:19:30;;;;;;;;;88.25;71.75;;;;;16.17;49.03;100504.69;5114193;27;9957;-78
2023/01/02 00:22:01;;;;;;;;;85.50;70.00;;;;;16.15;48.48;100494.19;5061681;27;9956;-78
2023/01/02 00:24:30;;;;;;;;;89.25;79.75;;;;;16.15;48.53;100490.69;5094425;27;9983;-79
2023/01/02 00:27:02;;;;;;;;;83.75;67.50;;;;;16.12;48.91;100490.69;5112973;27;10148;-78
2023/01/02 00:29:31;;;;;;;;;81.00;66.50;;;;;16.08;49.34;100484.59;5115905;27;9741;-77
2023/01/02 00:32:00;;;;;;;;;82.33;64.00;;;;;16.08;49.17;100494.25;5113811;27;9656;-80
2023/01/02 00:34:30;;;;;;;;;82.50;70.00;;;;;16.06;49.85;100490.75;5112482;27;9454;-80
2023/01/02 00:36:59;;;;;;;;;88.00;74.00;;;;;16.07;49.64;100495.16;5128951;27;9859;-80
2023/01/02 00:39:29;;;;;;;;;84.75;73.75;;;;;16.06;49.86;100501.28;5094952;27;9958;-78
2023/01/02 00:41:58;;;;;;;;;84.75;67.25;;;;;16.01;50.13;100493.44;5105441;27;9869;-78
2023/01/02 00:44:27;;;;;;;;;81.75;64.00;;;;;16.02;49.83;100496.94;5128910;27;9849;-77
2023/01/02 00:46:56;;;;;;;;;84.50;67.50;;;;;16.00;50.11;100496.06;5090287;28;9531;-80
2023/01/02 00:49:25;;;;;;;;;82.75;64.25;;;;;16.04;49.67;100501.28;5085934;28;9657;-78
2023/01/02 00:51:55;;;;;;;;;82.50;69.75;;;;;16.06;50.12;100493.38;5069026;28;9450;-76
2023/01/02 00:54:23;;;;;;;;;86.50;69.25;;;;;16.04;50.06;100496.03;5068884;28;9548;-79
2023/01/02 00:56:52;;;;;;;;;78.75;62.75;;;;;16.05;49.85;100495.16;5085585;28;9636;-79
2023/01/02 00:59:21;;;;;;;;;81.25;68.25;;;;;16.08;49.96;100491.63;5068874;28;9619;-79
2023/01/02 01:01:50;;;;;;;;;80.33;65.33;;;;;16.07;49.64;100501.28;5068552;28;9707;-78
2023/01/02 01:04:19;;;;;;;;;80.00;63.75;;;;;16.05;50.15;100499.53;5051984;28;9470;-77
2023/01/02 01:06:49;;;;;;;;;79.00;64.50;;;;;16.05;49.92;100500.41;5052172;28;9678;-79
2023/01/02 01:09:20;;;;;;;;;71.25;57.50;;;;;16.06;49.84;100501.28;5068432;28;9805;-77
2023/01/02 01:11:49;;;;;;;;;78.67;61.00;;;;;16.04;49.75;100501.28;5084999;28;9698;-78
2023/01/02 01:14:18;;;;;;;;;76.67;60.00;;;;;16.05;49.55;100507.41;5085716;28;9314;-78
2023/01/02 01:16:47;;;;;;;;;80.67;64.33;;;;;16.00;49.89;100502.19;5055578;28;9399;-79
2023/01/02 01:19:16;;;;;;;;;62.50;50.00;;;;;16.02;50.04;100505.69;5084815;28;10093;-77
2023/01/02 01:21:44;;;;;;;;;81.67;63.00;;;;;16.03;50.04;100503.91;5147011;27;9774;-78
2023/01/02 01:24:13;;;;;;;;;77.67;64.00;;;;;16.04;50.05;100503.06;5117804;27;9382;-78
2023/01/02 01:26:44;;;;;;;;;71.67;55.33;;;;;16.02;50.18;100510.09;5153642;27;9427;-79
2023/01/02 01:29:12;;;;;;;;;76.33;60.00;;;;;15.97;49.92;100505.75;5134579;27;8976;-79
2023/01/02 01:31:41;;;;;;;;;78.67;61.67;;;;;15.88;50.63;100500.53;5134734;27;9165;-79
2023/01/02 01:34:11;;;;;;;;;78.67;62.33;;;;;15.92;50.02;100497.00;5134572;27;9261;-79
2023/01/02 01:36:40;;;;;;;;;80.67;63.33;;;;;15.58;51.57;100501.56;5117809;27;9152;-78
2023/01/02 01:39:09;;;;;;;;;71.67;58.33;;;;;15.45;52.19;100508.66;5134964;27;9323;-77
2023/01/02 01:41:38;;;;;;;;;76.00;60.00;;;;;15.42;51.89;100503.38;5118175;27;10043;-78
2023/01/02 01:44:46;;;;;;;;;74.67;58.00;;;;;15.42;52.33;100498.13;5154044;27;9290;-79
2023/01/02 01:47:24;;;;;;;;;71.33;55.67;;;;;15.29;52.64;100496.44;5153208;27;9532;-79
2023/01/02 01:50:00;;;;;;;;;70.00;54.25;;;;;15.23;52.73;100497.34;5134445;27;9027;-79
2023/01/02 01:52:38;;;;;;;;;63.25;50.00;;;;;15.28;52.46;100492.09;5134479;27;8909;-79
2023/01/02 01:55:12;;;;;;;;;69.75;55.75;;;;;15.16;52.73;100486.00;5117154;27;8854;-78
2023/01/02 01:57:44;;;;;;;;;67.00;53.50;;;;;15.12;52.98;100489.53;5117442;27;8854;-78
2023/01/02 02:00:16;;;;;;;;;64.75;53.00;;;;;15.29;52.50;100486.84;5117045;27;9674;-78
2023/01/02 02:02:49;;;;;;;;;57.50;47.25;;;;;15.32;52.52;100488.56;5117431;27;8831;-78
2023/01/02 02:05:23;;;;;;;;;56.00;45.25;;;;;15.53;51.53;100485.81;5098828;27;9597;-77
2023/01/02 02:08:00;;;;;;;;;56.00;46.25;;;;;15.58;51.52;100486.66;5099241;27;8862;-78
2023/01/02 02:10:28;;;;;;;;;53.00;43.25;;;;;15.64;50.99;100483.13;5108142;28;8856;-79
2023/01/02 02:12:57;;;;;;;;;56.50;44.50;;;;;15.65;51.29;100484.00;5074697;28;8851;-79
2023/01/02 02:15:37;;;;;;;;;51.75;42.00;;;;;15.82;50.64;100481.28;5117528;28;9058;-78
2023/01/02 02:18:17;;;;;;;;;57.50;44.50;;;;;15.86;50.86;100478.63;5077372;28;9035;-78
2023/01/02 02:20:54;;;;;;;;;55.50;45.50;;;;;16.00;50.54;100475.03;5070919;28;8911;-79
2023/01/02 02:24:02;;;;;;;;;45.50;40.75;;;;;16.16;49.82;100471.38;5054651;28;8857;-77
2023/01/02 02:26:58;;;;;;;;;60.25;49.75;;;;;15.83;50.63;100478.66;5054226;28;8878;-77
2023/01/02 02:30:08;;;;;;;;;55.75;46.00;;;;;15.76;51.09;100475.19;5010943;28;8915;-78
2023/01/02 02:32:59;;;;;;;;;57.50;45.25;;;;;15.66;51.31;100472.59;5027373;28;8868;-78
2023/01/02 02:35:42;;;;;;;;;56.25;46.75;;;;;15.68;51.46;100474.31;5012060;28;8848;-78
2023/01/02 02:38:18;;;;;;;;;53.50;44.50;;;;;15.81;51.19;100477.78;4994903;28;8887;-78
2023/01/02 02:40:56;;;;;;;;;51.75;42.25;;;;;15.86;50.80;100476.00;4997749;28;9681;-78
2023/01/02 02:43:35;;;;;;;;;51.75;43.75;;;;;16.02;50.20;100479.38;5030507;28;8912;-78
2023/01/02 02:46:13;;;;;;;;;56.25;46.00;;;;;15.99;50.29;100482.03;5047194;28;8880;-78
2023/01/02 02:48:52;;;;;;;;;57.50;47.00;;;;;16.09;50.04;100482.84;5031375;28;8940;-78
2023/01/02 02:51:30;;;;;;;;;60.00;48.00;;;;;15.93;50.54;100472.41;5015165;28;8857;-77
2023/01/02 02:54:02;;;;;;;;;56.75;45.50;;;;;16.09;50.00;100482.84;5048710;28;9750;-78
2023/01/02 02:56:31;;;;;;;;;58.50;49.25;;;;;16.14;49.83;100481.03;5014896;28;8838;-79
2023/01/02 02:59:01;;;;;;;;;63.00;50.00;;;;;16.10;49.26;100474.06;5032490;28;8838;-78
2023/01/02 03:01:31;;;;;;;;;61.50;48.50;;;;;16.16;49.65;100472.25;5032385;28;8846;-77
2023/01/02 03:04:00;;;;;;;;;52.50;43.25;;;;;16.23;49.06;100473.06;5033218;28;8861;-79
2023/01/02 03:06:45;;;;;;;;;53.00;44.25;;;;;16.37;49.21;100467.69;5078565;27;9613;-80
2023/01/02 03:09:22;;;;;;;;;48.50;41.75;;;;;16.28;49.22;100466.00;5112934;27;8983;-79
2023/01/02 03:12:00;;;;;;;;;55.00;45.50;;;;;16.33;49.03;100472.13;5112815;27;8837;-78
2023/01/02 03:14:37;;;;;;;;;51.00;41.25;;;;;16.22;49.35;100466.06;5087219;28;8872;-78
2023/01/02 03:17:19;;;;;;;;;57.75;47.75;;;;;16.12;49.79;100470.53;5107658;28;8839;-78
2023/01/02 03:19:54;;;;;;;;;60.50;48.00;;;;;16.22;49.27;100454.66;5107782;28;8977;-77
2023/01/02 03:22:31;;;;;;;;;57.25;47.00;;;;;16.09;49.95;100448.66;5091031;28;8844;-78
2023/01/02 03:25:00;;;;;;;;;55.50;45.75;;;;;15.96;50.21;100450.50;5090329;28;8970;-78
2023/01/02 03:27:33;;;;;;;;;52.50;45.25;;;;;15.90;50.19;100443.53;5090747;28;8976;-78
2023/01/02 03:30:05;;;;;;;;;50.75;43.25;;;;;16.00;50.27;100454.84;5074367;28;9624;-78
2023/01/02 03:32:41;;;;;;;;;54.50;44.00;;;;;15.84;50.75;100451.47;5070148;28;8823;-78
2023/01/02 03:35:15;;;;;;;;;59.50;48.25;;;;;15.75;50.96;100444.50;5070338;28;9021;-78
2023/01/02 03:37:49;;;;;;;;;53.75;45.00;;;;;15.76;50.98;100448.91;5086859;28;8832;-79
2023/01/02 03:40:22;;;;;;;;;66.75;51.00;;;;;15.51;50.69;100449.91;5053723;28;8855;-77
2023/01/02 03:42:57;;;;;;;;;60.00;46.00;;;;;15.51;51.62;100456.03;5050067;28;8868;-77
2023/01/02 03:45:30;;;;;;;;;64.25;50.00;;;;;15.73;50.56;100462.06;5082086;28;8859;-78
2023/01/02 03:48:09;;;;;;;;;60.00;48.50;;;;;15.74;50.67;100463.78;5073070;28;8821;-79
2023/01/02 03:50:45;;;;;;;;;60.25;50.00;;;;;15.85;50.25;100471.63;5072910;28;8864;-78
2023/01/02 03:53:14;;;;;;;;;55.75;45.75;;;;;15.95;49.47;100472.41;5106559;28;8869;-78
2023/01/02 03:55:52;;;;;;;;;58.75;48.50;;;;;16.09;49.37;100459.16;5089746;28;9660;-78
2023/01/02 03:58:29;;;;;;;;;56.00;46.50;;;;;16.06;49.62;100464.44;5089640;28;8887;-79
2023/01/02 04:01:04;;;;;;;;;62.25;49.75;;;;;16.12;49.46;100462.66;5089603;28;8860;-77
2023/01/02 04:03:39;;;;;;;;;54.50;44.75;;;;;16.17;49.26;100459.97;5099536;27;8849;-78
2023/01/02 04:06:13;;;;;;;;;49.00;41.75;;;;;16.16;49.38;100456.47;5076390;27;8988;-79
2023/01/02 04:08:47;;;;;;;;;50.25;41.25;;;;;16.01;49.88;100458.34;5128232;27;8853;-78
2023/01/02 04:11:19;;;;;;;;;48.25;41.00;;;;;16.15;49.37;100453.84;5111378;27;8853;-77
2023/01/02 04:13:53;;;;;;;;;52.25;42.50;;;;;16.21;48.80;100453.78;5126943;27;9677;-78
2023/01/02 04:16:27;;;;;;;;;57.00;47.00;;;;;16.01;49.13;100460.97;5129525;27;8981;-77
2023/01/02 04:19:03;;;;;;;;;46.75;41.25;;;;;16.07;49.46;100453.06;5129272;27;8847;-77
2023/01/02 04:21:37;;;;;;;;;51.25;41.75;;;;;16.11;49.60;100457.41;5111264;27;9631;-79
2023/01/02 04:24:12;;;;;;;;;49.00;41.25;;;;;16.21;49.35;100455.56;5129744;27;8846;-77
2023/01/02 04:26:46;;;;;;;;;44.75;38.25;;;;;16.17;49.38;100454.69;5111244;27;8973;-77
2023/01/02 04:29:15;;;;;;;;;50.75;41.50;;;;;16.10;49.10;100460.91;5129844;27;8846;-78
2023/01/02 04:31:48;;;;;;;;;56.25;45.00;;;;;16.18;48.89;100466.97;5128748;27;8843;-76
2023/01/02 04:34:21;;;;;;;;;55.75;46.25;;;;;16.18;48.85;100465.22;5112434;27;8884;-77
2023/01/02 04:36:50;;;;;;;;;59.75;48.25;;;;;16.06;49.04;100467.06;5110952;27;8877;-77
2023/01/02 04:39:22;;;;;;;;;59.25;48.50;;;;;16.09;48.84;100460.03;5127990;27;8898;-77
2023/01/02 04:41:51;;;;;;;;;59.75;47.25;;;;;16.10;49.13;100460.91;5054036;28;8853;-77
2023/01/02 04:44:19;;;;;;;;;61.50;47.75;;;;;16.00;49.46;100465.38;5052217;28;8853;-78
2023/01/02 04:46:48;;;;;;;;;57.75;48.50;;;;;15.90;49.42;100463.72;5052181;28;8861;-78
2023/01/02 04:49:18;;;;;;;;;56.25;45.50;;;;;16.07;49.17;100467.06;5068783;28;8841;-77
2023/01/02 04:51:47;;;;;;;;;58.25;48.75;;;;;16.15;48.33;100462.59;5068878;28;8884;-78
2023/01/02 04:54:16;;;;;;;;;59.75;48.75;;;;;16.15;48.96;100462.59;5051957;28;8857;-78
2023/01/02 04:56:44;;;;;;;;;54.75;44.25;;;;;16.21;48.77;100472.22;5070240;28;8876;-78
2023/01/02 04:59:13;;;;;;;;;57.00;46.25;;;;;16.23;48.46;100467.81;5089507;28;8967;-78
2023/01/02 05:01:42;;;;;;;;;50.00;41.25;;;;;16.18;48.56;100464.31;5055702;28;8983;-80
2023/01/02 05:04:11;;;;;;;;;49.25;40.00;;;;;16.18;48.93;100473.13;5052275;28;8886;-79
2023/01/02 05:06:41;;;;;;;;;55.50;44.50;;;;;16.17;48.71;100474.00;5035841;28;8961;-78
2023/01/02 05:09:10;;;;;;;;;55.25;45.75;;;;;16.17;49.18;100467.84;5069165;28;8943;-78
2023/01/02 05:11:39;;;;;;;;;55.00;44.25;;;;;16.18;49.16;100473.13;5052258;28;8867;-79
2023/01/02 05:14:08;;;;;;;;;53.00;45.00;;;;;16.31;48.64;100475.63;5029026;28;8872;-77
2023/01/02 05:16:37;;;;;;;;;51.50;42.50;;;;;16.37;48.50;100468.56;5013523;28;8852;-78
2023/01/02 05:19:06;;;;;;;;;51.75;41.50;;;;;16.44;48.30;100471.13;5031756;28;8865;-77
2023/01/02 05:24:22;;;;;;;;;55.50;44.25;;;;;16.45;47.97;100471.13;5093097;28;8879;-79
2023/01/02 05:26:51;;;;;;;;;50.00;42.25;;;;;16.45;48.21;100468.47;5098803;28;9612;-76
2023/01/02 05:29:20;;;;;;;;;57.25;47.00;;;;;16.48;48.10;100468.47;5083521;28;8892;-77
2023/01/02 05:31:49;;;;;;;;;52.50;45.00;;;;;16.47;48.13;100473.75;5100361;28;8851;-78
2023/01/02 05:34:18;;;;;;;;;50.00;42.00;;;;;16.42;47.85;100481.66;5102887;28;8904;-79
2023/01/02 05:36:46;;;;;;;;;47.25;39.50;;;;;16.38;47.59;100478.19;5083153;28;8840;-78
2023/01/02 05:39:15;;;;;;;;;49.25;42.75;;;;;16.39;47.33;100473.81;5076231;28;9050;-77
2023/01/02 05:41:45;;;;;;;;;50.50;40.50;;;;;16.34;47.88;100476.47;5051231;28;8879;-79
2023/01/02 05:44:14;;;;;;;;;52.25;43.75;;;;;16.39;47.77;100471.19;5068300;28;8839;-79
2023/01/02 05:46:43;;;;;;;;;51.50;42.25;;;;;16.43;47.21;100469.41;5035105;28;8856;-77
2023/01/02 05:49:13;;;;;;;;;57.25;45.50;;;;;16.48;47.26;100476.38;5050705;28;8838;-78
2023/01/02 05:51:41;;;;;;;;;51.25;43.00;;;;;16.50;47.00;100471.06;5058037;28;8882;-76
2023/01/02 05:54:10;;;;;;;;;42.75;37.00;;;;;16.50;46.92;100473.69;5035962;28;8871;-78
2023/01/02 05:56:39;;;;;;;;;48.50;41.00;;;;;16.51;47.32;100476.31;5068780;28;8859;-77
2023/01/02 05:59:09;;;;;;;;;52.25;44.00;;;;;16.47;46.95;100474.59;5068347;28;8859;-77
2023/01/02 06:01:38;;;;;;;;;53.75;43.25;;;;;16.45;47.02;100481.66;5034680;28;8867;-78
2023/01/02 06:04:07;;;;;;;;;49.25;42.00;;;;;16.38;47.43;100475.56;5051909;28;9031;-78
2023/01/02 06:06:38;;;;;;;;;54.25;44.75;;;;;16.33;47.37;100476.47;5051605;28;9016;-77
2023/01/02 06:09:08;;;;;;;;;52.50;43.00;;;;;16.38;47.72;100472.91;5050744;28;8898;-78
2023/01/02 06:11:37;;;;;;;;;49.00;40.00;;;;;16.35;47.49;100479.97;5051086;28;8875;-76
2023/01/02 06:14:07;;;;;;;;;51.25;41.75;;;;;16.37;47.23;100478.22;5050970;28;9629;-78
2023/01/02 06:16:37;;;;;;;;;51.50;42.50;;;;;16.46;47.44;100477.25;5067551;28;8863;-79
2023/01/02 06:19:07;;;;;;;;;50.75;40.75;;;;;16.54;47.32;100475.41;5073097;27;8857;-79
2023/01/02 06:21:35;;;;;;;;;45.50;40.00;;;;;16.59;46.84;100475.38;5116283;27;8867;-78
2023/01/02 06:24:04;;;;;;;;;51.25;41.25;;;;;16.59;46.72;100478.00;5152072;27;8855;-79
2023/01/02 06:26:33;;;;;;;;;48.25;40.00;;;;;16.59;46.67;100473.59;5116720;27;8843;-75
2023/01/02 06:29:04;;;;;;;;;40.25;36.50;;;;;16.64;46.84;100477.06;5116826;27;8852;-79
2023/01/02 06:31:33;;;;;;;;;45.25;37.25;;;;;16.66;46.42;100477.91;5108132;28;8855;-80
2023/01/02 06:34:03;;;;;;;;;48.00;41.00;;;;;16.73;46.43;100481.38;5091497;28;8954;-79
2023/01/02 06:36:34;;;;;;;;;42.75;36.25;;;;;16.76;46.59;100481.31;5091150;28;8848;-79
2023/01/02 06:39:03;;;;;;;;;41.00;37.00;;;;;16.83;46.19;100476.91;5108210;28;8859;-76
2023/01/02 06:41:32;;;;;;;;;40.75;35.50;;;;;16.84;45.97;100489.16;5091163;28;8843;-78
2023/01/02 06:44:01;;;;;;;;;45.75;39.50;;;;;16.89;45.89;100487.38;5108119;28;8958;-77
2023/01/02 06:46:30;;;;;;;;;37.00;35.75;;;;;16.96;45.64;100486.41;5074445;28;8859;-78
2023/01/02 06:48:58;;;;;;;;;46.00;39.25;;;;;17.03;45.54;100484.56;5091377;28;9636;-79
2023/01/02 06:51:28;;;;;;;;;43.75;37.75;;;;;17.10;45.56;100495.00;5074220;28;8844;-78
2023/01/02 06:53:57;;;;;;;;;48.75;39.75;;;;;17.12;45.30;100490.59;5108149;28;8848;-78
2023/01/02 06:56:26;;;;;;;;;48.50;40.00;;;;;17.20;45.12;100490.53;5074375;28;9613;-78
2023/01/02 06:58:55;;;;;;;;;48.50;39.50;;;;;17.27;45.24;100492.16;5087918;28;8849;-79
2023/01/02 07:01:24;;;;;;;;;44.00;37.75;;;;;17.21;45.23;100491.38;5070570;28;8877;-78
2023/01/02 07:03:54;;;;;;;;;55.25;43.25;;;;;17.13;45.03;100497.63;5087987;28;8935;-79
2023/01/02 07:06:23;;;;;;;;;50.50;40.50;;;;;17.09;45.32;100495.06;5071718;28;8949;-79
2023/01/02 07:08:54;;;;;;;;;46.50;39.25;;;;;16.67;46.39;100506.03;5048127;28;8842;-79
2023/01/02 07:11:24;;;;;;;;;38.25;35.00;;;;;16.47;46.86;100506.19;5047419;28;9082;-78
2023/01/02 07:13:54;;;;;;;;;51.00;42.50;;;;;16.39;46.89;100502.78;5047078;28;8900;-79
2023/01/02 07:16:24;;;;;;;;;64.00;51.75;;;;;16.68;46.08;100497.22;5030883;28;8912;-79
2023/01/02 07:18:54;;;;;;;;;76.00;61.33;;;;;16.92;45.47;100501.38;5030593;28;8861;-80
2023/01/02 07:21:23;;;;;;;;;75.67;61.00;;;;;17.09;45.12;100503.81;5030136;28;9187;-80
2023/01/02 07:23:54;;;;;;;;;71.50;56.75;;;;;17.25;44.33;100501.00;5031187;28;10061;-78
2023/01/02 07:26:22;;;;;;;;;78.67;63.00;;;;;17.38;44.12;100496.44;5031261;28;8877;-78
2023/01/02 07:28:51;;;;;;;;;74.00;58.33;;;;;17.48;43.86;100506.81;5030916;28;9365;-79
2023/01/02 07:31:21;;;;;;;;;73.00;57.00;;;;;17.60;43.88;100505.81;5039392;28;9374;-79
2023/01/02 07:33:50;;;;;;;;;64.00;51.00;;;;;17.70;43.52;100506.53;5074096;28;9226;-78
2023/01/02 07:36:21;;;;;;;;;68.50;54.25;;;;;17.71;43.63;100495.09;5054364;28;8854;-79
2023/01/02 07:38:51;;;;;;;;;66.50;53.75;;;;;17.70;43.80;100496.00;5053787;28;8872;-79
2023/01/02 07:41:23;;;;;;;;;61.50;50.75;;;;;17.76;43.81;100497.66;5069186;28;9632;-78
2023/01/02 07:43:54;;;;;;;;;69.00;54.25;;;;;17.81;43.82;100495.84;5088547;28;9577;-80
2023/01/02 07:46:24;;;;;;;;;63.00;52.00;;;;;17.83;43.55;100499.34;5105181;28;8855;-79
2023/01/02 07:48:53;;;;;;;;;64.50;51.75;;;;;17.87;43.26;100499.28;5087786;28;8858;-81
2023/01/02 07:51:21;;;;;;;;;68.00;55.50;;;;;17.89;43.33;100494.84;5036979;28;9048;-77
2023/01/02 07:53:56;;;;;;;;;63.25;52.75;;;;;17.90;43.33;100490.44;5070532;28;8844;-80
2023/01/02 07:56:27;;;;;;;;;62.75;49.75;;;;;17.96;43.40;100497.38;5096331;28;8856;-79
2023/01/02 07:58:56;;;;;;;;;56.25;44.00;;;;;18.03;43.19;100491.97;5087283;28;9745;-77
2023/01/02 08:01:25;;;;;;;;;63.25;49.75;;;;;18.12;43.02;100486.56;5088701;28;8988;-78
2023/01/02 08:03:54;;;;;;;;;59.50;49.50;;;;;18.19;42.97;100484.69;5070551;28;8896;-78
2023/01/02 08:06:23;;;;;;;;;57.25;48.25;;;;;18.27;43.08;100493.34;5087299;28;8849;-80
2023/01/02 08:08:52;;;;;;;;;67.00;53.50;;;;;18.34;42.98;100486.22;5104179;28;8872;-81
2023/01/02 08:11:22;;;;;;;;;57.00;48.00;;;;;18.41;42.69;100481.69;5087451;28;9587;-80
2023/01/02 08:13:52;;;;;;;;;58.00;48.00;;;;;18.47;42.40;100487.75;5069431;28;8887;-79
2023/01/02 08:16:21;;;;;;;;;61.00;49.00;;;;;18.50;42.42;100489.44;5087171;28;8852;-79
2023/01/02 08:18:54;;;;;;;;;67.00;53.00;;;;;18.59;42.42;100489.28;5087335;28;8835;-76
2023/01/02 08:21:23;;;;;;;;;69.00;56.00;;;;;18.63;42.46;100482.16;5104728;28;10180;-80
2023/01/02 08:23:53;;;;;;;;;70.67;56.00;;;;;18.70;42.42;100489.09;5104537;28;8859;-80
2023/01/02 08:26:22;;;;;;;;;74.00;57.33;;;;;18.74;42.31;100482.84;5070353;28;9129;-77
2023/01/02 08:28:53;;;;;;;;;67.00;54.75;;;;;18.80;42.01;100488.03;5106566;27;9430;-80
2023/01/02 08:31:22;;;;;;;;;67.75;55.25;;;;;18.89;41.88;100487.00;5110874;27;8841;-79
2023/01/02 08:33:51;;;;;;;;;69.00;55.25;;;;;18.99;41.65;100482.41;5094209;27;8853;-79
2023/01/02 08:36:20;;;;;;;;;73.50;58.75;;;;;19.08;41.77;100488.34;5094131;27;8928;-80
2023/01/02 08:38:49;;;;;;;;;73.67;58.33;;;;;19.18;41.35;100488.19;5110912;27;9553;-79
2023/01/02 08:41:30;;;;;;;;;69.67;55.67;;;;;19.41;41.39;100488.56;5112609;27;9269;-79
2023/01/02 08:44:01;;;;;;;;;72.00;56.33;;;;;19.38;41.44;100487.75;5068907;28;9269;-80
2023/01/02 08:46:31;;;;;;;;;80.00;69.00;;;;;19.48;41.24;100490.16;5052601;28;9394;-78
2023/01/02 08:49:10;;;;;;;;;84.00;77.25;;;;;19.59;41.14;100489.06;5035526;28;10015;-78
2023/01/02 08:51:39;;;;;;;;;89.25;82.50;;;;;19.66;41.19;100491.53;5054134;28;10578;-79
2023/01/02 08:54:08;;;;;;;;;84.50;77.50;;;;;19.76;41.30;100486.06;5087253;28;10782;-79
2023/01/02 08:56:37;;;;;;;;;77.25;65.50;;;;;19.81;41.21;100484.16;5085875;28;10591;-80
2023/01/02 08:59:09;;;;;;;;;83.00;70.75;;;;;19.91;41.06;100485.69;5085507;28;10023;-79
2023/01/02 09:01:39;;;;;;;;;80.00;69.00;;;;;19.96;40.76;100477.63;5059724;28;10138;-81
2023/01/02 09:04:09;;;;;;;;;73.00;60.00;;;;;20.00;40.67;100476.63;5048937;28;9832;-79
2023/01/02 09:06:42;;;;;;;;;68.50;54.50;;;;;20.06;40.44;100472.09;5032591;28;9431;-80
2023/01/02 09:09:13;;;;;;;;;70.00;55.25;;;;;20.12;40.40;100471.06;5031979;28;8851;-79
2023/01/02 09:11:44;;;;;;;;;61.50;49.50;;;;;20.21;39.81;100464.66;5065389;28;8832;-81
2023/01/02 09:14:15;;;;;;;;;68.00;53.50;;;;;20.23;39.95;100465.50;5014738;28;8858;-79
2023/01/02 09:16:43;;;;;;;;;68.25;54.50;;;;;20.26;40.06;100457.44;5068174;28;8850;-79
2023/01/02 09:19:12;;;;;;;;;62.50;47.25;;;;;20.32;39.54;100461.72;5085216;28;8839;-80
2023/01/02 09:21:41;;;;;;;;;54.00;45.00;;;;;20.37;39.44;100458.03;5035483;28;8839;-80
2023/01/02 09:24:11;;;;;;;;;55.25;46.00;;;;;20.43;39.31;100455.25;5076527;28;8847;-80
2023/01/02 09:26:40;;;;;;;;;55.00;45.50;;;;;20.47;38.89;100450.72;5053912;28;8847;-80
2023/01/02 09:29:10;;;;;;;;;48.00;41.00;;;;;20.53;38.80;100445.28;5067851;28;9050;-79
2023/01/02 09:31:40;;;;;;;;;55.75;44.75;;;;;20.60;38.44;100441.59;5051685;28;8859;-81
2023/01/02 09:34:10;;;;;;;;;6.00;5.00;;;;;20.60;38.49;100441.59;5051881;28;8863;-81
2023/01/02 09:36:38;;;;;;;;;57.00;47.00;;;;;20.64;38.64;100437.03;5068109;28;8846;-79
2023/01/02 09:39:09;;;;;;;;;53.75;44.25;;;;;20.70;38.66;100439.53;5051455;28;8870;-78
2023/01/02 09:41:40;;;;;;;;;55.25;45.00;;;;;20.77;38.51;100427.84;5067983;28;8871;-80
2023/01/02 09:44:15;;;;;;;;;60.50;49.00;;;;;20.88;38.47;100424.03;5053637;28;8843;-79
2023/01/02 09:46:50;;;;;;;;;58.75;46.75;;;;;20.94;38.45;100423.84;5055090;28;9773;-82
2023/01/02 09:49:22;;;;;;;;;58.50;48.00;;;;;20.95;38.33;100423.78;5051474;28;9583;-79
2023/01/02 09:51:51;;;;;;;;;61.25;49.50;;;;;20.95;38.43;100421.16;5061015;28;8868;-79
2023/01/02 09:54:25;;;;;;;;;63.00;50.75;;;;;21.01;38.33;100413.00;5070675;28;8865;-80
2023/01/02 09:57:18;;;;;;;;;59.75;48.25;;;;;21.18;38.35;100403.69;5091857;28;8888;-82
2023/01/02 09:59:56;;;;;;;;;61.50;49.50;;;;;21.10;38.21;100405.69;5092012;28;8924;-79
2023/01/02 10:02:42;;;;;;;;;64.00;51.00;;;;;21.22;38.22;100407.97;5091667;28;8955;-80
2023/01/02 10:05:45;;;;;;;;;60.50;49.00;;;;;21.25;37.80;100404.34;5091441;28;9097;-79
2023/01/02 10:08:26;;;;;;;;;64.00;51.25;;;;;21.24;37.92;100403.47;5036346;28;8968;-79
2023/01/02 10:11:16;;;;;;;;;62.75;50.00;;;;;21.30;37.70;100397.13;5015310;28;8834;-80
2023/01/02 10:13:52;;;;;;;;;64.25;51.75;;;;;21.29;37.64;100406.00;5014390;28;9713;-79
2023/01/02 10:16:44;;;;;;;;;62.00;49.50;;;;;21.29;37.53;100398.06;5032518;28;8843;-80
2023/01/02 10:19:18;;;;;;;;;63.00;50.75;;;;;21.34;37.44;100396.09;5030835;28;8857;-82
2023/01/02 10:21:49;;;;;;;;;58.75;48.00;;;;;21.34;37.19;100397.00;5031409;28;8854;-80
2023/01/02 10:24:23;;;;;;;;;57.25;46.50;;;;;21.40;37.31;100391.47;5047701;28;8862;-80
2023/01/02 10:26:53;;;;;;;;;63.25;50.00;;;;;21.41;37.42;100390.53;5064403;28;8855;-80
2023/01/02 10:29:28;;;;;;;;;66.75;51.25;;;;;21.51;37.28;100384.97;5034596;28;8988;-79
2023/01/02 10:32:00;;;;;;;;;64.75;52.00;;;;;21.50;36.89;100380.59;5034355;28;8871;-79
2023/01/02 10:34:40;;;;;;;;;63.00;51.50;;;;;21.64;36.88;100380.16;5067893;28;8868;-80
2023/01/02 10:37:15;;;;;;;;;66.75;53.00;;;;;21.61;36.99;100376.69;5036817;28;9652;-80
2023/01/02 10:39:46;;;;;;;;;69.00;54.50;;;;;21.56;36.59;100375.09;5068625;28;8880;-81
2023/01/02 10:42:16;;;;;;;;;68.00;54.00;;;;;21.59;36.59;100367.91;5034309;28;9993;-80
2023/01/02 10:44:46;;;;;;;;;69.00;56.00;;;;;21.61;36.63;100366.06;5057965;27;9175;-79
2023/01/02 10:47:21;;;;;;;;;69.33;54.33;;;;;21.75;36.43;100364.72;5096041;27;9360;-80
2023/01/02 10:49:54;;;;;;;;;69.67;57.00;;;;;21.78;36.07;100362.84;5112083;27;9462;-79
2023/01/02 10:52:27;;;;;;;;;73.33;59.00;;;;;21.83;36.27;100365.34;5094574;27;9529;-80
2023/01/02 10:54:58;;;;;;;;;70.67;60.33;;;;;21.87;35.97;100356.38;5093821;27;9185;-80
2023/01/02 10:57:39;;;;;;;;;69.00;55.33;;;;;22.04;36.02;100349.59;5090812;28;9298;-80
2023/01/02 11:00:26;;;;;;;;;51.50;42.25;;;;;22.11;35.07;100343.13;5107824;28;9167;-79
2023/01/02 11:02:59;;;;;;;;;61.50;48.75;;;;;21.97;35.12;100346.28;5090914;28;8825;-80
2023/01/02 11:05:31;;;;;;;;;61.75;49.75;;;;;22.08;35.10;100338.81;5090798;28;8926;-81
2023/01/02 11:08:11;;;;;;;;;65.67;53.00;;;;;22.17;35.06;100332.28;5091351;28;8836;-80
2023/01/02 11:10:41;;;;;;;;;69.33;55.33;;;;;22.20;35.17;100329.53;5091148;28;8933;-79
2023/01/02 11:13:11;;;;;;;;;68.00;54.33;;;;;22.26;34.90;100331.13;5091542;28;9071;-81
2023/01/02 11:15:49;;;;;;;;;59.00;47.25;;;;;22.38;34.71;100325.34;5101477;27;9987;-79
2023/01/02 11:18:22;;;;;;;;;50.50;40.50;;;;;22.35;34.61;100323.69;5111285;27;9647;-79
2023/01/02 11:21:02;;;;;;;;;45.75;38.50;;;;;22.39;34.16;100312.00;5111009;27;8823;-79
2023/01/02 11:23:36;;;;;;;;;46.75;39.75;;;;;22.41;34.05;100309.31;5093943;27;8870;-81
2023/01/02 11:26:10;;;;;;;;;45.75;36.75;;;;;22.41;33.84;100311.09;5110269;27;8897;-79
2023/01/02 11:28:41;;;;;;;;;42.50;36.00;;;;;22.44;33.64;100303.00;5117664;27;8854;-80
2023/01/02 11:31:13;;;;;;;;;46.00;39.00;;;;;22.48;33.88;100292.22;5130246;27;8876;-81
2023/01/02 11:33:44;;;;;;;;;46.75;39.75;;;;;22.53;34.12;100290.25;5145885;27;8842;-80
2023/01/02 11:36:19;;;;;;;;;50.00;42.00;;;;;22.57;34.12;100288.31;5128323;27;8854;-80
2023/01/02 11:38:49;;;;;;;;;45.75;38.50;;;;;22.58;33.94;100284.75;5111743;27;8861;-78
2023/01/02 11:43:47;;;;;;;;;49.00;39.25;;;;;22.75;33.97;100276.13;5106345;28;8871;-80
2023/01/02 11:44:24;;;;;;;;;48.00;40.50;;;;;22.73;34.07;100284.16;5089342;28;8821;-79